Back to Top

Language: 

My Weather Underground Personal Weather Station Historical Data with Graphs...

Delerius Weather Station Historical Data
Daily Summary for April 6, 2017 Units:  English    Metric   Both
« Previous Day
Next Day »
Daily Weekly Monthly Yearly Custom
  High: Low: Average:
Temperature: 54.9 °F 36.1 °F 46.4 °F
Dew Point: 44.3 °F 34.3 °F 40.3 °F
Humidity: 97 % 65 % 80 %
Wind Speed: 14.0 mph 0.0 mph 5.7 mph
Wind Gust: 24.0 mph - -
Wind:- - WNW
Pressure: 30.47 in 30.36 in -
Precipitation: 0.00 in    
Historical Graphs
 
 
Tabular Data for April 6, 2017
Time Temperature Dew Point Pressure Wind Wind Speed Wind Gust Humidity Rainfall Rate (Hourly) solar Conditions
00:02 44.1 °F 39.8 °F 30.47 in Calm   4.0 mph 85 % 0.00 in 0 W/m2
00:07 43.9 °F 39.7 °F 30.47 in West 1.0 mph 4.0 mph 85 % 0.00 in 0 W/m2
00:12 43.5 °F 39.6 °F 30.47 in West 1.0 mph 4.0 mph 86 % 0.00 in 0 W/m2
00:17 43.3 °F 39.1 °F 30.47 in Calm   3.0 mph 85 % 0.00 in 0 W/m2
00:22 43.2 °F 39.3 °F 30.47 in Calm   2.0 mph 86 % 0.00 in 0 W/m2
00:27 43.0 °F 39.1 °F 30.47 in West 1.0 mph 2.0 mph 86 % 0.00 in 0 W/m2
00:32 42.6 °F 38.7 °F 30.47 in Calm   2.0 mph 86 % 0.00 in 0 W/m2
00:38 42.4 °F 38.5 °F 30.47 in Calm   1.0 mph 86 % 0.00 in 0 W/m2
00:43 42.3 °F 38.7 °F 30.47 in Calm   1.0 mph 87 % 0.00 in 0 W/m2
00:48 42.1 °F 38.5 °F 30.47 in Calm   1.0 mph 87 % 0.00 in 0 W/m2
00:53 41.7 °F 38.1 °F 30.47 in Calm   1.0 mph 87 % 0.00 in 0 W/m2
00:58 41.5 °F 38.0 °F 30.46 in West 1.0 mph 4.0 mph 87 % 0.00 in 0 W/m2
01:03 41.5 °F 38.3 °F 30.47 in Calm   4.0 mph 88 % 0.00 in 0 W/m2
01:08 41.4 °F 38.1 °F 30.46 in Calm   1.0 mph 88 % 0.00 in 0 W/m2
01:13 41.4 °F 38.1 °F 30.46 in Calm   1.0 mph 88 % 0.00 in 0 W/m2
01:18 41.2 °F 37.9 °F 30.47 in Calm     88 % 0.00 in 0 W/m2
01:23 41.0 °F 37.7 °F 30.47 in Calm   1.0 mph 88 % 0.00 in 0 W/m2
01:28 40.8 °F 37.8 °F 30.46 in Calm   1.0 mph 89 % 0.00 in 0 W/m2
01:33 40.8 °F 37.8 °F 30.46 in Calm   1.0 mph 89 % 0.00 in 0 W/m2
01:38 40.6 °F 37.7 °F 30.46 in Calm   1.0 mph 89 % 0.00 in 0 W/m2
01:43 40.5 °F 37.5 °F 30.46 in Calm     89 % 0.00 in 0 W/m2
01:48 40.3 °F 37.3 °F 30.46 in Calm     89 % 0.00 in 0 W/m2
01:53 40.3 °F 37.6 °F 30.46 in Calm     90 % 0.00 in 0 W/m2
01:58 40.1 °F 37.4 °F 30.46 in Calm     90 % 0.00 in 0 W/m2
02:03 39.9 °F 37.2 °F 30.46 in Calm     90 % 0.00 in 0 W/m2
02:08 39.9 °F 37.2 °F 30.46 in Calm     90 % 0.00 in 0 W/m2
02:09 39.7 °F 37.0 °F 30.46 in Calm     90 % 0.00 in 0 W/m2
02:14 39.9 °F 37.5 °F 30.46 in Calm     91 % 0.00 in 0 W/m2
02:19 39.9 °F 37.5 °F 30.46 in Calm     91 % 0.00 in 0 W/m2
02:24 39.9 °F 37.5 °F 30.45 in Calm     91 % 0.00 in 0 W/m2
02:29 39.7 °F 37.3 °F 30.45 in Calm     91 % 0.00 in 0 W/m2
02:34 39.9 °F 37.5 °F 30.45 in Calm     91 % 0.00 in 0 W/m2
02:39 39.7 °F 37.3 °F 30.45 in Calm     91 % 0.00 in 0 W/m2
02:44 39.6 °F 37.2 °F 30.45 in Calm   1.0 mph 91 % 0.00 in 0 W/m2
02:49 39.6 °F 37.2 °F 30.45 in Calm   1.0 mph 91 % 0.00 in 0 W/m2
02:54 39.4 °F 37.0 °F 30.45 in Calm     91 % 0.00 in 0 W/m2
02:59 39.2 °F 36.8 °F 30.45 in Calm     91 % 0.00 in 0 W/m2
03:04 39.2 °F 36.8 °F 30.45 in Calm   1.0 mph 91 % 0.00 in 0 W/m2
03:09 39.0 °F 36.6 °F 30.45 in Calm   1.0 mph 91 % 0.00 in 0 W/m2
03:14 39.0 °F 36.9 °F 30.45 in Calm   1.0 mph 92 % 0.00 in 0 W/m2
03:19 38.8 °F 36.4 °F 30.45 in Calm   1.0 mph 91 % 0.00 in 0 W/m2
03:24 38.8 °F 36.7 °F 30.45 in Calm     92 % 0.00 in 0 W/m2
03:29 38.7 °F 36.3 °F 30.45 in Calm     91 % 0.00 in 0 W/m2
03:34 38.7 °F 36.5 °F 30.45 in Calm     92 % 0.00 in 0 W/m2
03:39 38.7 °F 36.5 °F 30.45 in Calm     92 % 0.00 in 0 W/m2
03:45 38.5 °F 36.4 °F 30.45 in Calm     92 % 0.00 in 0 W/m2
03:50 38.3 °F 36.2 °F 30.45 in Calm     92 % 0.00 in 0 W/m2
03:55 38.3 °F 36.2 °F 30.45 in Calm     92 % 0.00 in 0 W/m2
04:00 38.1 °F 36.0 °F 30.45 in Calm     92 % 0.00 in 0 W/m2
04:05 38.1 °F 36.0 °F 30.45 in Calm     92 % 0.00 in 0 W/m2
04:10 37.9 °F 35.8 °F 30.44 in Calm     92 % 0.00 in 0 W/m2
04:15 37.9 °F 35.8 °F 30.44 in Calm     92 % 0.00 in 0 W/m2
04:20 37.9 °F 36.1 °F 30.44 in Calm   1.0 mph 93 % 0.00 in 0 W/m2
04:25 38.1 °F 36.3 °F 30.44 in Calm   2.0 mph 93 % 0.00 in 0 W/m2
04:30 38.5 °F 36.6 °F 30.44 in Calm   2.0 mph 93 % 0.00 in 0 W/m2
04:35 38.5 °F 36.6 °F 30.43 in Calm   1.0 mph 93 % 0.00 in 0 W/m2
04:40 38.3 °F 36.5 °F 30.44 in Calm   1.0 mph 93 % 0.00 in 0 W/m2
04:45 38.3 °F 36.5 °F 30.44 in Calm   1.0 mph 93 % 0.00 in 0 W/m2
04:50 38.1 °F 36.3 °F 30.43 in Calm   1.0 mph 93 % 0.00 in 0 W/m2
04:55 38.1 °F 36.3 °F 30.43 in Calm   1.0 mph 93 % 0.00 in 0 W/m2
05:00 38.1 °F 36.3 °F 30.43 in Calm   2.0 mph 93 % 0.00 in 0 W/m2
05:05 38.1 °F 36.3 °F 30.43 in Calm   2.0 mph 93 % 0.00 in 0 W/m2
05:10 38.1 °F 36.3 °F 30.43 in Calm   1.0 mph 93 % 0.00 in 0 W/m2
05:15 38.1 °F 36.3 °F 30.43 in Calm   1.0 mph 93 % 0.00 in 0 W/m2
05:20 37.9 °F 36.1 °F 30.43 in Calm   1.0 mph 93 % 0.00 in 0 W/m2
05:25 37.8 °F 35.9 °F 30.43 in Calm   1.0 mph 93 % 0.00 in 0 W/m2
05:30 37.8 °F 35.9 °F 30.43 in Calm   1.0 mph 93 % 0.00 in 0 W/m2
05:35 37.6 °F 35.7 °F 30.43 in Calm   1.0 mph 93 % 0.00 in 0 W/m2
05:40 37.4 °F 35.6 °F 30.44 in Calm     93 % 0.00 in 0 W/m2
05:45 37.2 °F 35.4 °F 30.44 in Calm     93 % 0.00 in 0 W/m2
05:50 37.0 °F 35.2 °F 30.44 in Calm   2.0 mph 93 % 0.00 in 0 W/m2
05:55 37.0 °F 35.2 °F 30.44 in Calm   2.0 mph 93 % 0.00 in 0 W/m2
06:00 37.0 °F 35.2 °F 30.44 in Calm   2.0 mph 93 % 0.00 in 0 W/m2
06:02 37.0 °F 35.2 °F 30.45 in Calm   2.0 mph 93 % 0.00 in 0 W/m2
06:07 37.0 °F 35.2 °F 30.45 in Calm   2.0 mph 93 % 0.00 in 0 W/m2
06:12 37.2 °F 35.7 °F 30.45 in Calm   1.0 mph 94 % 0.00 in 0 W/m2
06:17 37.0 °F 35.2 °F 30.45 in Calm   2.0 mph 93 % 0.00 in 0 W/m2
06:22 36.9 °F 35.0 °F 30.45 in Calm   2.0 mph 93 % 0.00 in 0 W/m2
06:27 36.9 °F 35.0 °F 30.45 in Calm   1.0 mph 93 % 0.00 in 5 W/m2
06:32 36.7 °F 34.8 °F 30.46 in Calm     93 % 0.00 in 7 W/m2
06:37 36.5 °F 34.7 °F 30.46 in Calm     93 % 0.00 in 11 W/m2
06:38 36.5 °F 34.7 °F 30.46 in Calm     93 % 0.00 in 11 W/m2
06:43 36.3 °F 34.5 °F 30.46 in Calm     93 % 0.00 in 12 W/m2
06:48 36.3 °F 34.5 °F 30.46 in Calm     93 % 0.00 in 16 W/m2
06:53 36.1 °F 34.3 °F 30.46 in Calm     93 % 0.00 in 18 W/m2
06:58 36.3 °F 34.8 °F 30.46 in Calm     94 % 0.00 in 21 W/m2
07:03 36.3 °F 34.8 °F 30.46 in Calm     94 % 0.00 in 30 W/m2
07:08 36.3 °F 34.8 °F 30.46 in Calm     94 % 0.00 in 26 W/m2
07:09 36.3 °F 34.8 °F 30.46 in Calm     94 % 0.00 in 26 W/m2
07:14 36.5 °F 34.9 °F 30.46 in Calm     94 % 0.00 in 30 W/m2
07:19 36.5 °F 34.9 °F 30.46 in Calm     94 % 0.00 in 35 W/m2
07:24 36.7 °F 35.1 °F 30.46 in Calm     94 % 0.00 in 39 W/m2
07:29 36.9 °F 35.3 °F 30.46 in Calm     94 % 0.00 in 46 W/m2
07:34 37.0 °F 35.5 °F 30.46 in Calm     94 % 0.00 in 40 W/m2
07:39 37.2 °F 35.9 °F 30.46 in Calm     95 % 0.00 in 40 W/m2
07:44 37.6 °F 36.3 °F 30.46 in Calm     95 % 0.00 in 42 W/m2
07:49 37.9 °F 36.6 °F 30.46 in Calm     95 % 0.00 in 40 W/m2
07:54 38.1 °F 36.8 °F 30.46 in Calm     95 % 0.00 in 44 W/m2
07:59 38.7 °F 37.4 °F 30.46 in Calm     95 % 0.00 in 49 W/m2
08:04 39.0 °F 38.0 °F 30.46 in Calm   1.0 mph 96 % 0.00 in 185 W/m2
08:09 40.3 °F 39.2 °F 30.46 in Calm   3.0 mph 96 % 0.00 in 200 W/m2
08:14 41.4 °F 40.6 °F 30.45 in West 1.0 mph 3.0 mph 97 % 0.00 in 216 W/m2
08:19 42.4 °F 41.4 °F 30.45 in West 1.0 mph 3.0 mph 96 % 0.00 in 230 W/m2
08:24 43.3 °F 42.3 °F 30.45 in West 1.0 mph 5.0 mph 96 % 0.00 in 241 W/m2
08:29 44.2 °F 42.9 °F 30.45 in West 2.0 mph 5.0 mph 95 % 0.00 in 257 W/m2
08:34 45.0 °F 43.3 °F 30.45 in West 3.0 mph 6.0 mph 94 % 0.00 in 272 W/m2
08:39 45.9 °F 43.4 °F 30.45 in West 3.0 mph 7.0 mph 91 % 0.00 in 285 W/m2
08:44 46.8 °F 43.4 °F 30.45 in West 4.0 mph 10.0 mph 88 % 0.00 in 294 W/m2
08:49 47.5 °F 43.5 °F 30.45 in West 6.0 mph 11.0 mph 86 % 0.00 in 311 W/m2
08:54 47.8 °F 42.9 °F 30.45 in West 7.0 mph 12.0 mph 83 % 0.00 in 327 W/m2
09:00 48.0 °F 42.8 °F 30.45 in West 6.0 mph 12.0 mph 82 % 0.00 in 339 W/m2
09:05 48.6 °F 43.0 °F 30.45 in West 5.0 mph 10.0 mph 81 % 0.00 in 353 W/m2
09:10 48.7 °F 42.5 °F 30.45 in WNW 6.0 mph 12.0 mph 79 % 0.00 in 367 W/m2
09:15 48.7 °F 42.5 °F 30.45 in WNW 7.0 mph 12.0 mph 79 % 0.00 in 387 W/m2
09:20 49.1 °F 42.9 °F 30.45 in WNW 5.0 mph 11.0 mph 79 % 0.00 in 397 W/m2
09:25 49.5 °F 42.9 °F 30.46 in WNW 5.0 mph 11.0 mph 78 % 0.00 in 406 W/m2
09:30 49.8 °F 42.9 °F 30.46 in WNW 7.0 mph 13.0 mph 77 % 0.00 in 422 W/m2
09:35 50.0 °F 43.1 °F 30.45 in West 6.0 mph 13.0 mph 77 % 0.00 in 436 W/m2
09:40 49.6 °F 42.7 °F 30.46 in West 7.0 mph 14.0 mph 77 % 0.00 in 448 W/m2
09:45 49.6 °F 42.7 °F 30.45 in West 8.0 mph 14.0 mph 77 % 0.00 in 466 W/m2
09:50 49.3 °F 42.4 °F 30.45 in West 9.0 mph 14.0 mph 77 % 0.00 in 475 W/m2
09:55 49.3 °F 42.7 °F 30.46 in West 9.0 mph 14.0 mph 78 % 0.00 in 483 W/m2
10:00 49.3 °F 42.7 °F 30.45 in West 9.0 mph 14.0 mph 78 % 0.00 in 501 W/m2
10:05 49.3 °F 42.7 °F 30.45 in West 10.0 mph 14.0 mph 78 % 0.00 in 506 W/m2
10:10 49.3 °F 42.4 °F 30.45 in West 10.0 mph 18.0 mph 77 % 0.00 in 526 W/m2
10:15 49.5 °F 42.9 °F 30.45 in West 10.0 mph 18.0 mph 78 % 0.00 in 547 W/m2
10:20 49.8 °F 43.2 °F 30.45 in West 9.0 mph 14.0 mph 78 % 0.00 in 608 W/m2
10:25 50.2 °F 43.2 °F 30.45 in WSW 9.0 mph 14.0 mph 77 % 0.00 in 462 W/m2
10:30 50.2 °F 43.2 °F 30.45 in WSW 9.0 mph 13.0 mph 77 % 0.00 in 229 W/m2
10:35 50.5 °F 43.6 °F 30.46 in West 8.0 mph 13.0 mph 77 % 0.00 in 239 W/m2
10:40 50.9 °F 43.3 °F 30.46 in WNW 9.0 mph 18.0 mph 75 % 0.00 in 227 W/m2
10:45 50.9 °F 42.9 °F 30.46 in WNW 9.0 mph 18.0 mph 74 % 0.00 in 684 W/m2
10:50 51.3 °F 43.3 °F 30.45 in WNW 10.0 mph 18.0 mph 74 % 0.00 in 250 W/m2
10:55 50.9 °F 42.6 °F 30.45 in WNW 11.0 mph 18.0 mph 73 % 0.00 in 332 W/m2
11:00 51.1 °F 43.1 °F 30.45 in WNW 10.0 mph 18.0 mph 74 % 0.00 in 373 W/m2
11:05 51.1 °F 42.7 °F 30.45 in WNW 10.0 mph 16.0 mph 73 % 0.00 in 209 W/m2
11:10 51.1 °F 42.7 °F 30.45 in WNW 10.0 mph 19.0 mph 73 % 0.00 in 714 W/m2
11:15 51.1 °F 42.7 °F 30.45 in WNW 10.0 mph 19.0 mph 73 % 0.00 in 773 W/m2
11:20 51.3 °F 43.3 °F 30.45 in West 10.0 mph 15.0 mph 74 % 0.00 in 680 W/m2
11:25 52.0 °F 43.6 °F 30.45 in West 10.0 mph 16.0 mph 73 % 0.00 in 680 W/m2
11:30 52.5 °F 43.8 °F 30.45 in West 10.0 mph 18.0 mph 72 % 0.00 in 800 W/m2
11:35 53.1 °F 44.3 °F 30.45 in West 10.0 mph 19.0 mph 72 % 0.00 in 919 W/m2
11:40 53.1 °F 43.5 °F 30.45 in WNW 10.0 mph 19.0 mph 70 % 0.00 in 369 W/m2
11:45 52.9 °F 43.4 °F 30.45 in WNW 10.0 mph 19.0 mph 70 % 0.00 in 290 W/m2
11:50 52.5 °F 43.0 °F 30.45 in WNW 10.0 mph 19.0 mph 70 % 0.00 in 318 W/m2
11:55 52.3 °F 43.2 °F 30.45 in WNW 8.0 mph 14.0 mph 71 % 0.00 in 403 W/m2
12:00 52.5 °F 43.0 °F 30.44 in NW 9.0 mph 18.0 mph 70 % 0.00 in 329 W/m2
12:02 52.5 °F 43.0 °F 30.45 in WNW 9.0 mph 18.0 mph 70 % 0.00 in 302 W/m2
12:07 52.3 °F 42.8 °F 30.45 in WNW 10.0 mph 18.0 mph 70 % 0.00 in 367 W/m2
12:12 52.7 °F 43.2 °F 30.45 in WNW 9.0 mph 18.0 mph 70 % 0.00 in 501 W/m2
12:17 52.9 °F 43.0 °F 30.44 in West 10.0 mph 18.0 mph 69 % 0.00 in 308 W/m2
12:22 52.7 °F 43.2 °F 30.44 in West 11.0 mph 19.0 mph 70 % 0.00 in 492 W/m2
12:27 52.9 °F 43.4 °F 30.44 in West 11.0 mph 19.0 mph 70 % 0.00 in 287 W/m2
12:32 53.1 °F 43.2 °F 30.44 in WNW 10.0 mph 18.0 mph 69 % 0.00 in 265 W/m2
12:37 53.1 °F 42.8 °F 30.44 in WNW 10.0 mph 18.0 mph 68 % 0.00 in 309 W/m2
12:42 53.2 °F 43.3 °F 30.44 in West 11.0 mph 15.0 mph 69 % 0.00 in 330 W/m2
12:47 53.4 °F 43.5 °F 30.44 in WNW 10.0 mph 14.0 mph 69 % 0.00 in 359 W/m2
12:52 53.4 °F 43.1 °F 30.44 in WNW 9.0 mph 16.0 mph 68 % 0.00 in 338 W/m2
12:57 53.4 °F 43.1 °F 30.44 in WNW 10.0 mph 16.0 mph 68 % 0.00 in 392 W/m2
13:02 53.8 °F 43.5 °F 30.43 in West 11.0 mph 21.0 mph 68 % 0.00 in 513 W/m2
13:07 54.3 °F 44.0 °F 30.43 in West 12.0 mph 21.0 mph 68 % 0.00 in 577 W/m2
13:08 54.5 °F 43.8 °F 30.43 in West 11.0 mph 21.0 mph 67 % 0.00 in 577 W/m2
13:13 54.9 °F 44.1 °F 30.43 in WNW 10.0 mph 19.0 mph 67 % 0.00 in 364 W/m2
13:18 54.9 °F 44.1 °F 30.43 in NW 9.0 mph 15.0 mph 67 % 0.00 in 374 W/m2
13:23 54.9 °F 43.7 °F 30.43 in WNW 9.0 mph 15.0 mph 66 % 0.00 in 401 W/m2
13:28 54.7 °F 43.5 °F 30.43 in WNW 10.0 mph 18.0 mph 66 % 0.00 in 334 W/m2
13:33 54.5 °F 43.8 °F 30.42 in WNW 11.0 mph 18.0 mph 67 % 0.00 in 726 W/m2
13:38 54.9 °F 43.7 °F 30.42 in WNW 11.0 mph 16.0 mph 66 % 0.00 in 394 W/m2
13:43 54.5 °F 43.0 °F 30.42 in WNW 11.0 mph 22.0 mph 65 % 0.00 in 381 W/m2
13:48 54.3 °F 43.2 °F 30.42 in WNW 12.0 mph 22.0 mph 66 % 0.00 in 381 W/m2
13:54 54.3 °F 43.2 °F 30.42 in WNW 11.0 mph 22.0 mph 66 % 0.00 in 292 W/m2
13:59 54.3 °F 42.8 °F 30.42 in WNW 12.0 mph 22.0 mph 65 % 0.00 in 431 W/m2
14:04 54.3 °F 42.8 °F 30.41 in West 12.0 mph 19.0 mph 65 % 0.00 in 264 W/m2
14:09 54.1 °F 43.4 °F 30.41 in West 11.0 mph 19.0 mph 67 % 0.00 in 388 W/m2
14:14 54.1 °F 43.4 °F 30.41 in WNW 10.0 mph 19.0 mph 67 % 0.00 in 265 W/m2
14:19 54.0 °F 43.2 °F 30.41 in WNW 10.0 mph 19.0 mph 67 % 0.00 in 290 W/m2
14:24 53.8 °F 43.5 °F 30.41 in WNW 10.0 mph 21.0 mph 68 % 0.00 in 264 W/m2
14:29 53.4 °F 43.1 °F 30.41 in WNW 11.0 mph 21.0 mph 68 % 0.00 in 294 W/m2
14:34 53.4 °F 43.1 °F 30.41 in WNW 11.0 mph 20.0 mph 68 % 0.00 in 294 W/m2
14:39 53.4 °F 43.1 °F 30.41 in WNW 10.0 mph 16.0 mph 68 % 0.00 in 346 W/m2
14:44 53.8 °F 43.5 °F 30.41 in WNW 9.0 mph 19.0 mph 68 % 0.00 in 274 W/m2
14:49 53.8 °F 43.5 °F 30.41 in WNW 10.0 mph 19.0 mph 68 % 0.00 in 285 W/m2
14:54 53.4 °F 42.7 °F 30.41 in WNW 10.0 mph 18.0 mph 67 % 0.00 in 207 W/m2
14:59 53.2 °F 42.6 °F 30.41 in WNW 10.0 mph 19.0 mph 67 % 0.00 in 230 W/m2
15:04 53.2 °F 42.9 °F 30.40 in WNW 9.0 mph 19.0 mph 68 % 0.00 in 301 W/m2
15:09 53.6 °F 43.3 °F 30.40 in WNW 8.0 mph 14.0 mph 68 % 0.00 in 253 W/m2
15:14 53.6 °F 42.9 °F 30.40 in WNW 9.0 mph 15.0 mph 67 % 0.00 in 232 W/m2
15:19 53.4 °F 42.7 °F 30.40 in WNW 11.0 mph 19.0 mph 67 % 0.00 in 248 W/m2
15:24 53.4 °F 42.7 °F 30.40 in WNW 11.0 mph 19.0 mph 67 % 0.00 in 232 W/m2
15:29 53.2 °F 42.6 °F 30.40 in WNW 10.0 mph 18.0 mph 67 % 0.00 in 218 W/m2
15:34 53.2 °F 42.9 °F 30.40 in WNW 9.0 mph 18.0 mph 68 % 0.00 in 301 W/m2
15:39 53.4 °F 42.7 °F 30.40 in WNW 10.0 mph 18.0 mph 67 % 0.00 in 691 W/m2
15:44 53.8 °F 43.1 °F 30.39 in West 11.0 mph 19.0 mph 67 % 0.00 in 642 W/m2
15:49 53.8 °F 42.7 °F 30.39 in WNW 12.0 mph 21.0 mph 66 % 0.00 in 232 W/m2
15:54 54.0 °F 42.9 °F 30.39 in WNW 11.0 mph 21.0 mph 66 % 0.00 in 555 W/m2
15:59 54.3 °F 43.2 °F 30.39 in WNW 11.0 mph 21.0 mph 66 % 0.00 in 592 W/m2
16:04 54.3 °F 42.8 °F 30.39 in West 12.0 mph 21.0 mph 65 % 0.00 in 202 W/m2
16:09 54.0 °F 42.9 °F 30.39 in WNW 13.0 mph 22.0 mph 66 % 0.00 in 279 W/m2
16:14 54.0 °F 42.9 °F 30.39 in West 14.0 mph 23.0 mph 66 % 0.00 in 561 W/m2
16:19 54.0 °F 42.9 °F 30.38 in West 13.0 mph 23.0 mph 66 % 0.00 in 573 W/m2
16:24 54.0 °F 42.9 °F 30.38 in West 11.0 mph 20.0 mph 66 % 0.00 in 183 W/m2
16:29 53.8 °F 42.3 °F 30.39 in WNW 12.0 mph 22.0 mph 65 % 0.00 in 325 W/m2
16:34 53.4 °F 42.3 °F 30.38 in WNW 13.0 mph 22.0 mph 66 % 0.00 in 552 W/m2
16:39 53.2 °F 42.2 °F 30.38 in West 14.0 mph 24.0 mph 66 % 0.00 in 197 W/m2
16:45 52.9 °F 42.2 °F 30.38 in WNW 13.0 mph 24.0 mph 67 % 0.00 in 232 W/m2
16:50 53.1 °F 42.8 °F 30.38 in WNW 11.0 mph 23.0 mph 68 % 0.00 in 427 W/m2
16:55 53.2 °F 42.6 °F 30.38 in WNW 11.0 mph 20.0 mph 67 % 0.00 in 213 W/m2
17:00 52.9 °F 42.2 °F 30.38 in WNW 12.0 mph 20.0 mph 67 % 0.00 in 438 W/m2
17:05 53.2 °F 42.6 °F 30.38 in WNW 12.0 mph 19.0 mph 67 % 0.00 in 533 W/m2
17:10 53.8 °F 43.1 °F 30.37 in WNW 10.0 mph 19.0 mph 67 % 0.00 in 515 W/m2
17:15 54.0 °F 42.9 °F 30.37 in WNW 11.0 mph 19.0 mph 66 % 0.00 in 429 W/m2
17:20 54.0 °F 42.9 °F 30.37 in WNW 12.0 mph 20.0 mph 66 % 0.00 in 387 W/m2
17:25 53.8 °F 42.7 °F 30.37 in WNW 11.0 mph 20.0 mph 66 % 0.00 in 371 W/m2
17:30 53.8 °F 42.7 °F 30.37 in WNW 11.0 mph 20.0 mph 66 % 0.00 in 366 W/m2
17:35 53.8 °F 42.7 °F 30.37 in WNW 11.0 mph 19.0 mph 66 % 0.00 in 323 W/m2
17:40 53.2 °F 41.8 °F 30.37 in WNW 12.0 mph 21.0 mph 65 % 0.00 in 221 W/m2
17:45 52.5 °F 41.9 °F 30.37 in WNW 13.0 mph 21.0 mph 67 % 0.00 in 197 W/m2
17:50 52.0 °F 41.7 °F 30.37 in WNW 12.0 mph 21.0 mph 68 % 0.00 in 292 W/m2
17:55 51.6 °F 41.4 °F 30.37 in WNW 11.0 mph 18.0 mph 68 % 0.00 in 132 W/m2
18:00 51.4 °F 41.6 °F 30.37 in NW 9.0 mph 16.0 mph 69 % 0.00 in 107 W/m2
18:05 51.1 °F 41.6 °F 30.37 in WNW 10.0 mph 16.0 mph 70 % 0.00 in 116 W/m2
18:10 50.9 °F 41.5 °F 30.37 in WNW 12.0 mph 19.0 mph 70 % 0.00 in 151 W/m2
18:15 51.1 °F 42.0 °F 30.37 in WNW 10.0 mph 19.0 mph 71 % 0.00 in 244 W/m2
18:20 51.3 °F 41.8 °F 30.37 in WNW 8.0 mph 19.0 mph 70 % 0.00 in 120 W/m2
18:25 51.1 °F 41.6 °F 30.37 in WNW 10.0 mph 19.0 mph 70 % 0.00 in 76 W/m2
18:30 50.5 °F 41.5 °F 30.36 in WNW 11.0 mph 18.0 mph 71 % 0.00 in 51 W/m2
18:35 50.2 °F 41.5 °F 30.36 in WNW 10.0 mph 19.0 mph 72 % 0.00 in 114 W/m2
18:40 50.0 °F 41.7 °F 30.36 in WNW 11.0 mph 24.0 mph 73 % 0.00 in 40 W/m2
18:45 49.6 °F 41.3 °F 30.36 in WNW 12.0 mph 24.0 mph 73 % 0.00 in 35 W/m2
18:50 49.5 °F 41.5 °F 30.37 in WNW 11.0 mph 21.0 mph 74 % 0.00 in 63 W/m2
18:55 49.5 °F 41.5 °F 30.37 in WNW 9.0 mph 18.0 mph 74 % 0.00 in 47 W/m2
19:00 49.3 °F 41.7 °F 30.36 in WNW 10.0 mph 18.0 mph 75 % 0.00 in 40 W/m2
19:05 49.3 °F 41.7 °F 30.37 in West 10.0 mph 19.0 mph 75 % 0.00 in 39 W/m2
19:10 49.1 °F 41.5 °F 30.37 in WNW 9.0 mph 19.0 mph 75 % 0.00 in 30 W/m2
19:15 48.9 °F 41.3 °F 30.36 in WNW 8.0 mph 16.0 mph 75 % 0.00 in 28 W/m2
19:20 48.7 °F 41.2 °F 30.36 in WNW 9.0 mph 19.0 mph 75 % 0.00 in 23 W/m2
19:25 48.6 °F 41.0 °F 30.37 in WNW 11.0 mph 20.0 mph 75 % 0.00 in 16 W/m2
19:30 48.6 °F 41.3 °F 30.37 in WNW 11.0 mph 20.0 mph 76 % 0.00 in 11 W/m2
19:35 48.6 °F 41.3 °F 30.37 in WNW 10.0 mph 19.0 mph 76 % 0.00 in 11 W/m2
19:40 48.4 °F 41.2 °F 30.37 in WNW 11.0 mph 20.0 mph 76 % 0.00 in 7 W/m2
19:46 48.4 °F 41.2 °F 30.37 in WNW 9.0 mph 20.0 mph 76 % 0.00 in 5 W/m2
19:51 48.4 °F 41.2 °F 30.37 in WNW 8.0 mph 15.0 mph 76 % 0.00 in 5 W/m2
19:56 48.2 °F 41.0 °F 30.37 in WNW 10.0 mph 19.0 mph 76 % 0.00 in 0 W/m2
20:01 48.2 °F 41.3 °F 30.37 in WNW 10.0 mph 19.0 mph 77 % 0.00 in 0 W/m2
20:06 48.2 °F 41.3 °F 30.37 in WNW 8.0 mph 13.0 mph 77 % 0.00 in 0 W/m2
20:11 48.4 °F 41.5 °F 30.38 in WNW 6.0 mph 13.0 mph 77 % 0.00 in 0 W/m2
20:16 48.2 °F 41.3 °F 30.38 in WNW 7.0 mph 14.0 mph 77 % 0.00 in 0 W/m2
20:21 48.0 °F 41.2 °F 30.38 in WNW 9.0 mph 14.0 mph 77 % 0.00 in 0 W/m2
20:26 48.0 °F 41.2 °F 30.38 in NW 9.0 mph 16.0 mph 77 % 0.00 in 0 W/m2
20:31 48.0 °F 41.5 °F 30.39 in NW 8.0 mph 16.0 mph 78 % 0.00 in 0 W/m2
20:36 48.0 °F 41.5 °F 30.38 in WNW 8.0 mph 16.0 mph 78 % 0.00 in 0 W/m2
20:41 48.0 °F 41.5 °F 30.38 in WNW 8.0 mph 16.0 mph 78 % 0.00 in 0 W/m2
20:46 48.0 °F 41.5 °F 30.39 in WNW 7.0 mph 14.0 mph 78 % 0.00 in 0 W/m2
20:51 48.0 °F 41.5 °F 30.39 in WNW 8.0 mph 14.0 mph 78 % 0.00 in 0 W/m2
20:56 48.0 °F 41.5 °F 30.39 in WNW 7.0 mph 14.0 mph 78 % 0.00 in 0 W/m2
21:01 48.0 °F 41.5 °F 30.39 in WNW 6.0 mph 14.0 mph 78 % 0.00 in 0 W/m2
21:06 48.0 °F 41.5 °F 30.39 in WNW 6.0 mph 12.0 mph 78 % 0.00 in 0 W/m2
21:11 48.0 °F 41.5 °F 30.39 in WNW 7.0 mph 16.0 mph 78 % 0.00 in 0 W/m2
21:16 47.8 °F 41.3 °F 30.39 in NW 6.0 mph 16.0 mph 78 % 0.00 in 0 W/m2
21:21 47.8 °F 41.3 °F 30.39 in NW 5.0 mph 10.0 mph 78 % 0.00 in 0 W/m2
21:26 47.8 °F 41.6 °F 30.39 in WNW 6.0 mph 14.0 mph 79 % 0.00 in 0 W/m2
21:31 47.8 °F 41.6 °F 30.39 in NW 7.0 mph 14.0 mph 79 % 0.00 in 0 W/m2
21:36 47.7 °F 41.5 °F 30.39 in NW 7.0 mph 13.0 mph 79 % 0.00 in 0 W/m2
21:41 47.5 °F 41.3 °F 30.39 in WNW 7.0 mph 15.0 mph 79 % 0.00 in 0 W/m2
21:46 47.5 °F 41.3 °F 30.39 in WNW 7.0 mph 15.0 mph 79 % 0.00 in 0 W/m2
21:51 47.3 °F 41.4 °F 30.38 in WNW 6.0 mph 14.0 mph 80 % 0.00 in 0 W/m2
21:56 47.1 °F 41.3 °F 30.39 in WNW 8.0 mph 14.0 mph 80 % 0.00 in 0 W/m2
22:01 47.1 °F 41.3 °F 30.38 in WNW 8.0 mph 14.0 mph 80 % 0.00 in 0 W/m2
22:06 46.9 °F 41.4 °F 30.38 in WNW 8.0 mph 14.0 mph 81 % 0.00 in 0 W/m2
22:11 46.8 °F 41.2 °F 30.39 in WNW 8.0 mph 14.0 mph 81 % 0.00 in 0 W/m2
22:13 46.8 °F 41.2 °F 30.38 in WNW 9.0 mph 14.0 mph 81 % 0.00 in 0 W/m2
22:18 46.8 °F 41.2 °F 30.39 in WNW 8.0 mph 13.0 mph 81 % 0.00 in 0 W/m2
22:19 46.6 °F 41.1 °F 30.38 in WNW 8.0 mph 13.0 mph 81 % 0.00 in 0 W/m2
22:24 46.6 °F 41.4 °F 30.38 in WNW 8.0 mph 12.0 mph 82 % 0.00 in 0 W/m2
22:29 46.4 °F 41.2 °F 30.39 in WNW 7.0 mph 11.0 mph 82 % 0.00 in 0 W/m2
22:34 46.2 °F 41.0 °F 30.39 in WNW 7.0 mph 10.0 mph 82 % 0.00 in 0 W/m2
22:39 46.0 °F 41.2 °F 30.38 in WNW 7.0 mph 13.0 mph 83 % 0.00 in 0 W/m2
22:44 46.0 °F 41.2 °F 30.39 in WNW 6.0 mph 13.0 mph 83 % 0.00 in 0 W/m2
22:49 45.9 °F 41.0 °F 30.38 in WNW 5.0 mph 10.0 mph 83 % 0.00 in 0 W/m2
22:54 45.7 °F 40.8 °F 30.38 in WNW 4.0 mph 9.0 mph 83 % 0.00 in 0 W/m2
22:59 45.5 °F 40.6 °F 30.38 in WNW 4.0 mph 9.0 mph 83 % 0.00 in 0 W/m2
23:04 45.3 °F 40.5 °F 30.38 in WNW 3.0 mph 7.0 mph 83 % 0.00 in 0 W/m2
23:09 45.1 °F 40.6 °F 30.38 in WNW 2.0 mph 7.0 mph 84 % 0.00 in 0 W/m2
23:14 45.0 °F 40.4 °F 30.38 in WNW 1.0 mph 4.0 mph 84 % 0.00 in 0 W/m2
23:19 44.8 °F 40.2 °F 30.38 in WNW 2.0 mph 5.0 mph 84 % 0.00 in 0 W/m2
23:24 44.6 °F 40.4 °F 30.38 in WNW 2.0 mph 5.0 mph 85 % 0.00 in 0 W/m2
23:29 44.4 °F 40.2 °F 30.38 in West 2.0 mph 5.0 mph 85 % 0.00 in 0 W/m2
23:34 44.2 °F 40.0 °F 30.38 in West 2.0 mph 5.0 mph 85 % 0.00 in 0 W/m2
23:39 44.1 °F 39.8 °F 30.38 in West 2.0 mph 4.0 mph 85 % 0.00 in 0 W/m2
23:44 43.9 °F 39.7 °F 30.38 in West 1.0 mph 4.0 mph 85 % 0.00 in 0 W/m2
23:49 43.5 °F 39.6 °F 30.37 in West 1.0 mph 4.0 mph 86 % 0.00 in 0 W/m2
23:54 43.3 °F 39.4 °F 30.38 in WNW 2.0 mph 4.0 mph 86 % 0.00 in 0 W/m2
Delerius-Weather
Compliments of Weather Underground - 2.25 mb

Data updates at regular intervals.